sensor_id;sensor_type;location;lat;lon;timestamp;P1;P2;P0
50589;PMS7003;36547;50.514;30.840;2023-04-25T00:00:50;15.50;14.70;11.30
50589;PMS7003;36547;50.514;30.840;2023-04-25T00:01:53;14.00;13.70;10.70
50589;PMS7003;36547;50.514;30.840;2023-04-25T00:02:55;13.20;12.50;10.30
50589;PMS7003;36547;50.514;30.840;2023-04-25T00:03:57;11.70;11.50;9.60
50589;PMS7003;36547;50.514;30.840;2023-04-25T00:05:01;15.10;13.40;10.30
50589;PMS7003;36547;50.514;30.840;2023-04-25T00:06:05;14.50;13.40;11.20
50589;PMS7003;36547;50.514;30.840;2023-04-25T00:07:07;13.30;13.30;10.90
50589;PMS7003;36547;50.514;30.840;2023-04-25T00:08:09;14.10;12.70;11.10
50589;PMS7003;36547;50.514;30.840;2023-04-25T00:09:12;13.90;13.90;11.00
50589;PMS7003;36547;50.514;30.840;2023-04-25T00:10:16;15.40;13.80;10.80
50589;PMS7003;36547;50.514;30.840;2023-04-25T00:11:18;13.40;13.40;10.40
50589;PMS7003;36547;50.514;30.840;2023-04-25T00:12:20;15.33;13.67;11.11
50589;PMS7003;36547;50.514;30.840;2023-04-25T00:13:22;13.30;12.20;9.90
50589;PMS7003;36547;50.514;30.840;2023-04-25T00:14:25;13.30;13.30;11.10
50589;PMS7003;36547;50.514;30.840;2023-04-25T00:15:27;15.30;13.50;9.90
50589;PMS7003;36547;50.514;30.840;2023-04-25T00:16:30;12.90;12.10;10.50
50589;PMS7003;36547;50.514;30.840;2023-04-25T00:17:32;12.70;12.70;9.80
50589;PMS7003;36547;50.514;30.840;2023-04-25T00:18:35;13.40;12.90;10.50
50589;PMS7003;36547;50.514;30.840;2023-04-25T00:19:37;14.00;13.80;10.40
50589;PMS7003;36547;50.514;30.840;2023-04-25T00:20:39;14.60;13.40;10.90
50589;PMS7003;36547;50.514;30.840;2023-04-25T00:21:42;14.10;14.00;11.40
50589;PMS7003;36547;50.514;30.840;2023-04-25T00:22:44;14.80;13.90;10.60
50589;PMS7003;36547;50.514;30.840;2023-04-25T00:23:47;15.00;14.50;11.40
50589;PMS7003;36547;50.514;30.840;2023-04-25T00:24:49;13.50;12.90;10.40
50589;PMS7003;36547;50.514;30.840;2023-04-25T00:25:51;16.50;16.50;11.70
50589;PMS7003;36547;50.514;30.840;2023-04-25T00:26:54;15.40;14.70;11.40
50589;PMS7003;36547;50.514;30.840;2023-04-25T00:27:56;14.50;13.50;10.70
50589;PMS7003;36547;50.514;30.840;2023-04-25T00:28:59;13.50;12.60;10.40
50589;PMS7003;36547;50.514;30.840;2023-04-25T00:30:01;15.20;14.10;10.90
50589;PMS7003;36547;50.514;30.840;2023-04-25T00:31:04;16.40;14.60;11.00
50589;PMS7003;36547;50.514;30.840;2023-04-25T00:32:06;17.50;15.40;11.40
50589;PMS7003;36547;50.514;30.840;2023-04-25T00:33:09;16.30;14.30;11.80
50589;PMS7003;36547;50.514;30.840;2023-04-25T00:34:11;15.20;14.40;10.80
50589;PMS7003;36547;50.514;30.840;2023-04-25T00:35:13;16.90;16.00;12.50
50589;PMS7003;36547;50.514;30.840;2023-04-25T00:36:16;16.80;14.80;11.20
50589;PMS7003;36547;50.514;30.840;2023-04-25T00:37:19;14.60;13.50;11.30
50589;PMS7003;36547;50.514;30.840;2023-04-25T00:38:21;17.30;15.70;12.40
50589;PMS7003;36547;50.514;30.840;2023-04-25T00:39:24;13.91;13.91;11.36
50589;PMS7003;36547;50.514;30.840;2023-04-25T00:40:27;16.20;15.20;11.50
50589;PMS7003;36547;50.514;30.840;2023-04-25T00:41:30;17.20;16.00;12.70
50589;PMS7003;36547;50.514;30.840;2023-04-25T00:42:34;18.30;17.30;11.90
50589;PMS7003;36547;50.514;30.840;2023-04-25T00:43:37;16.80;16.60;13.30
50589;PMS7003;36547;50.514;30.840;2023-04-25T00:44:39;16.10;15.10;12.10
50589;PMS7003;36547;50.514;30.840;2023-04-25T00:45:42;18.60;16.30;11.70
50589;PMS7003;36547;50.514;30.840;2023-04-25T00:46:45;15.70;14.80;12.60
50589;PMS7003;36547;50.514;30.840;2023-04-25T00:47:49;17.90;14.80;11.60
50589;PMS7003;36547;50.514;30.840;2023-04-25T00:48:51;15.80;15.80;12.00
50589;PMS7003;36547;50.514;30.840;2023-04-25T00:49:54;15.40;15.40;11.30
50589;PMS7003;36547;50.514;30.840;2023-04-25T00:50:57;15.30;15.30;11.40
50589;PMS7003;36547;50.514;30.840;2023-04-25T00:52:01;15.00;14.70;10.60
50589;PMS7003;36547;50.514;30.840;2023-04-25T00:53:03;14.30;14.10;10.80
50589;PMS7003;36547;50.514;30.840;2023-04-25T00:54:06;15.18;14.00;10.18
50589;PMS7003;36547;50.514;30.840;2023-04-25T00:55:09;18.10;15.80;12.60
50589;PMS7003;36547;50.514;30.840;2023-04-25T00:56:13;14.90;14.80;11.50
50589;PMS7003;36547;50.514;30.840;2023-04-25T00:57:16;19.70;17.00;12.00
50589;PMS7003;36547;50.514;30.840;2023-04-25T00:58:20;17.20;14.10;11.60
50589;PMS7003;36547;50.514;30.840;2023-04-25T00:59:23;16.60;15.40;12.20
50589;PMS7003;36547;50.514;30.840;2023-04-25T01:00:26;19.27;16.00;11.36
50589;PMS7003;36547;50.514;30.840;2023-04-25T01:01:30;17.00;15.10;11.40
50589;PMS7003;36547;50.514;30.840;2023-04-25T01:02:33;16.70;15.60;11.60
50589;PMS7003;36547;50.514;30.840;2023-04-25T01:03:37;19.60;15.90;12.50
50589;PMS7003;36547;50.514;30.840;2023-04-25T01:04:42;18.20;16.40;12.70
50589;PMS7003;36547;50.514;30.840;2023-04-25T01:05:45;18.10;17.00;13.00
50589;PMS7003;36547;50.514;30.840;2023-04-25T01:06:49;15.50;14.40;11.20
50589;PMS7003;36547;50.514;30.840;2023-04-25T01:07:52;18.40;17.00;12.70
50589;PMS7003;36547;50.514;30.840;2023-04-25T01:08:55;15.80;15.80;12.20
50589;PMS7003;36547;50.514;30.840;2023-04-25T01:09:58;18.90;16.10;13.10
50589;PMS7003;36547;50.514;30.840;2023-04-25T01:11:00;16.10;14.70;11.20
50589;PMS7003;36547;50.514;30.840;2023-04-25T01:12:03;16.80;15.90;12.10
50589;PMS7003;36547;50.514;30.840;2023-04-25T01:13:05;15.60;14.60;11.80
50589;PMS7003;36547;50.514;30.840;2023-04-25T01:14:08;16.09;14.45;11.45
50589;PMS7003;36547;50.514;30.840;2023-04-25T01:15:10;13.10;10.70;7.10
50589;PMS7003;36547;50.514;30.840;2023-04-25T01:16:14;13.70;13.50;10.80
50589;PMS7003;36547;50.514;30.840;2023-04-25T01:17:17;15.80;15.80;11.60
50589;PMS7003;36547;50.514;30.840;2023-04-25T01:18:20;16.30;16.30;12.50
50589;PMS7003;36547;50.514;30.840;2023-04-25T01:19:23;16.09;14.55;11.64
50589;PMS7003;36547;50.514;30.840;2023-04-25T01:20:26;16.20;15.90;12.40
50589;PMS7003;36547;50.514;30.840;2023-04-25T01:21:31;15.40;14.50;11.40
50589;PMS7003;36547;50.514;30.840;2023-04-25T01:22:33;15.90;15.90;11.90
50589;PMS7003;36547;50.514;30.840;2023-04-25T01:24:46;17.50;15.00;12.30
50589;PMS7003;36547;50.514;30.840;2023-04-25T01:25:49;18.30;15.50;11.70
50589;PMS7003;36547;50.514;30.840;2023-04-25T01:26:53;17.50;15.60;10.50
50589;PMS7003;36547;50.514;30.840;2023-04-25T01:27:58;17.80;16.70;13.20
50589;PMS7003;36547;50.514;30.840;2023-04-25T01:29:03;14.00;14.00;10.30
50589;PMS7003;36547;50.514;30.840;2023-04-25T01:30:07;16.90;14.80;11.60
50589;PMS7003;36547;50.514;30.840;2023-04-25T01:31:11;15.40;14.80;11.60
50589;PMS7003;36547;50.514;30.840;2023-04-25T01:32:14;15.90;14.90;11.40
50589;PMS7003;36547;50.514;30.840;2023-04-25T01:33:17;16.60;16.60;12.10
50589;PMS7003;36547;50.514;30.840;2023-04-25T01:34:22;16.60;15.10;11.50
50589;PMS7003;36547;50.514;30.840;2023-04-25T01:35:25;16.60;15.50;11.90
50589;PMS7003;36547;50.514;30.840;2023-04-25T01:36:30;15.50;15.50;11.80
50589;PMS7003;36547;50.514;30.840;2023-04-25T01:37:32;15.10;14.20;10.80
50589;PMS7003;36547;50.514;30.840;2023-04-25T01:38:35;15.00;15.00;10.80
50589;PMS7003;36547;50.514;30.840;2023-04-25T01:39:38;16.30;14.30;10.90
50589;PMS7003;36547;50.514;30.840;2023-04-25T01:40:41;16.90;15.30;10.80
50589;PMS7003;36547;50.514;30.840;2023-04-25T01:41:48;16.30;15.60;11.20
50589;PMS7003;36547;50.514;30.840;2023-04-25T01:42:51;12.50;12.50;9.80
50589;PMS7003;36547;50.514;30.840;2023-04-25T01:43:55;11.80;10.80;7.60
50589;PMS7003;36547;50.514;30.840;2023-04-25T01:44:57;13.73;13.55;10.45
50589;PMS7003;36547;50.514;30.840;2023-04-25T01:46:00;15.80;15.40;12.10
50589;PMS7003;36547;50.514;30.840;2023-04-25T01:47:02;15.50;15.50;11.70
50589;PMS7003;36547;50.514;30.840;2023-04-25T01:48:05;15.82;12.91;9.45
50589;PMS7003;36547;50.514;30.840;2023-04-25T01:49:08;14.40;13.10;10.40
50589;PMS7003;36547;50.514;30.840;2023-04-25T01:50:11;14.27;13.73;9.91
50589;PMS7003;36547;50.514;30.840;2023-04-25T01:51:13;15.90;13.70;10.00
50589;PMS7003;36547;50.514;30.840;2023-04-25T01:52:16;16.00;16.00;12.50
50589;PMS7003;36547;50.514;30.840;2023-04-25T01:53:18;14.40;14.40;11.80
50589;PMS7003;36547;50.514;30.840;2023-04-25T01:54:21;14.90;14.60;10.60
50589;PMS7003;36547;50.514;30.840;2023-04-25T01:55:24;14.10;12.60;9.50
50589;PMS7003;36547;50.514;30.840;2023-04-25T01:56:49;15.40;14.80;12.00
50589;PMS7003;36547;50.514;30.840;2023-04-25T01:57:50;16.30;15.50;12.40
50589;PMS7003;36547;50.514;30.840;2023-04-25T01:58:54;15.60;14.50;9.60
50589;PMS7003;36547;50.514;30.840;2023-04-25T01:59:59;16.90;16.30;13.20
50589;PMS7003;36547;50.514;30.840;2023-04-25T02:01:15;12.90;12.80;9.40
50589;PMS7003;36547;50.514;30.840;2023-04-25T02:02:19;15.60;15.00;11.30
50589;PMS7003;36547;50.514;30.840;2023-04-25T02:03:22;16.50;14.40;11.40
50589;PMS7003;36547;50.514;30.840;2023-04-25T02:04:26;17.20;15.90;13.60
50589;PMS7003;36547;50.514;30.840;2023-04-25T02:05:33;17.64;15.27;11.73
50589;PMS7003;36547;50.514;30.840;2023-04-25T02:06:38;12.60;12.60;10.50
50589;PMS7003;36547;50.514;30.840;2023-04-25T02:07:41;16.10;15.10;10.80
50589;PMS7003;36547;50.514;30.840;2023-04-25T02:08:44;16.10;14.90;12.30
50589;PMS7003;36547;50.514;30.840;2023-04-25T02:09:48;14.30;13.90;10.10
50589;PMS7003;36547;50.514;30.840;2023-04-25T02:10:52;14.90;14.90;12.40
50589;PMS7003;36547;50.514;30.840;2023-04-25T02:11:55;16.18;15.73;12.55
50589;PMS7003;36547;50.514;30.840;2023-04-25T02:13:03;15.50;13.70;11.60
50589;PMS7003;36547;50.514;30.840;2023-04-25T02:14:19;17.00;13.20;10.20
50589;PMS7003;36547;50.514;30.840;2023-04-25T02:15:26;16.20;16.20;12.30
50589;PMS7003;36547;50.514;30.840;2023-04-25T02:16:30;17.70;14.30;10.00
50589;PMS7003;36547;50.514;30.840;2023-04-25T02:17:35;13.20;13.20;9.80
50589;PMS7003;36547;50.514;30.840;2023-04-25T02:18:37;15.10;13.70;9.70
50589;PMS7003;36547;50.514;30.840;2023-04-25T02:19:41;15.80;14.80;10.90
50589;PMS7003;36547;50.514;30.840;2023-04-25T02:20:43;14.80;12.90;10.60
50589;PMS7003;36547;50.514;30.840;2023-04-25T02:21:47;14.90;14.80;11.60
50589;PMS7003;36547;50.514;30.840;2023-04-25T02:22:49;15.40;14.10;11.60
50589;PMS7003;36547;50.514;30.840;2023-04-25T02:23:52;13.10;12.90;10.20
50589;PMS7003;36547;50.514;30.840;2023-04-25T02:24:55;13.64;13.64;10.18
50589;PMS7003;36547;50.514;30.840;2023-04-25T02:25:57;12.60;12.60;10.30
50589;PMS7003;36547;50.514;30.840;2023-04-25T02:27:00;12.60;12.60;10.90
50589;PMS7003;36547;50.514;30.840;2023-04-25T02:28:03;15.00;14.40;11.30
50589;PMS7003;36547;50.514;30.840;2023-04-25T02:29:05;15.70;15.70;11.10
50589;PMS7003;36547;50.514;30.840;2023-04-25T02:30:08;13.50;13.30;10.70
50589;PMS7003;36547;50.514;30.840;2023-04-25T02:31:11;15.20;15.20;10.70
50589;PMS7003;36547;50.514;30.840;2023-04-25T02:32:14;14.10;14.10;10.50
50589;PMS7003;36547;50.514;30.840;2023-04-25T02:33:16;15.50;15.50;11.30
50589;PMS7003;36547;50.514;30.840;2023-04-25T02:34:19;16.64;15.73;11.55
50589;PMS7003;36547;50.514;30.840;2023-04-25T02:35:21;19.70;16.90;12.80
50589;PMS7003;36547;50.514;30.840;2023-04-25T02:36:24;14.80;14.00;11.40
50589;PMS7003;36547;50.514;30.840;2023-04-25T02:37:26;14.80;14.80;11.20
50589;PMS7003;36547;50.514;30.840;2023-04-25T02:38:28;17.00;15.60;12.60
50589;PMS7003;36547;50.514;30.840;2023-04-25T02:39:31;16.50;14.50;10.20
50589;PMS7003;36547;50.514;30.840;2023-04-25T02:40:33;16.50;15.40;12.50
50589;PMS7003;36547;50.514;30.840;2023-04-25T02:41:36;17.40;15.20;11.00
50589;PMS7003;36547;50.514;30.840;2023-04-25T02:42:38;17.40;16.90;12.50
50589;PMS7003;36547;50.514;30.840;2023-04-25T02:43:40;14.60;14.60;11.60
50589;PMS7003;36547;50.514;30.840;2023-04-25T02:44:42;16.30;15.50;11.90
50589;PMS7003;36547;50.514;30.840;2023-04-25T02:45:45;15.09;15.00;12.27
50589;PMS7003;36547;50.514;30.840;2023-04-25T02:46:48;17.20;15.50;11.50
50589;PMS7003;36547;50.514;30.840;2023-04-25T02:47:50;15.20;14.90;12.10
50589;PMS7003;36547;50.514;30.840;2023-04-25T02:48:54;18.00;15.30;12.80
50589;PMS7003;36547;50.514;30.840;2023-04-25T02:49:56;16.50;14.20;12.00
50589;PMS7003;36547;50.514;30.840;2023-04-25T02:50:59;15.60;14.70;13.00
50589;PMS7003;36547;50.514;30.840;2023-04-25T02:52:02;15.64;15.64;12.36
50589;PMS7003;36547;50.514;30.840;2023-04-25T02:53:04;14.70;14.00;9.90
50589;PMS7003;36547;50.514;30.840;2023-04-25T02:54:09;17.40;14.40;11.60
50589;PMS7003;36547;50.514;30.840;2023-04-25T02:55:13;19.80;15.50;11.50
50589;PMS7003;36547;50.514;30.840;2023-04-25T02:56:17;6.60;6.40;3.90
50589;PMS7003;36547;50.514;30.840;2023-04-25T02:57:19;16.00;16.00;11.50
50589;PMS7003;36547;50.514;30.840;2023-04-25T02:58:22;16.90;15.50;12.70
50589;PMS7003;36547;50.514;30.840;2023-04-25T02:59:26;16.50;16.30;11.70
50589;PMS7003;36547;50.514;30.840;2023-04-25T03:00:29;19.00;17.30;13.30
50589;PMS7003;36547;50.514;30.840;2023-04-25T03:01:32;17.60;14.70;11.50
50589;PMS7003;36547;50.514;30.840;2023-04-25T03:02:34;17.60;16.80;13.20
50589;PMS7003;36547;50.514;30.840;2023-04-25T03:03:36;15.60;14.60;10.60
50589;PMS7003;36547;50.514;30.840;2023-04-25T03:04:40;16.80;15.90;12.70
50589;PMS7003;36547;50.514;30.840;2023-04-25T03:05:42;17.80;16.30;12.30
50589;PMS7003;36547;50.514;30.840;2023-04-25T03:06:46;17.00;15.70;11.70
50589;PMS7003;36547;50.514;30.840;2023-04-25T03:07:49;20.00;16.91;13.00
50589;PMS7003;36547;50.514;30.840;2023-04-25T03:08:51;18.80;18.60;14.10
50589;PMS7003;36547;50.514;30.840;2023-04-25T03:09:55;18.70;15.50;11.20
50589;PMS7003;36547;50.514;30.840;2023-04-25T03:10:58;16.80;16.60;13.00
50589;PMS7003;36547;50.514;30.840;2023-04-25T03:12:00;15.60;14.40;10.90
50589;PMS7003;36547;50.514;30.840;2023-04-25T03:13:03;17.60;16.50;12.80
50589;PMS7003;36547;50.514;30.840;2023-04-25T03:14:05;20.50;17.80;13.70
50589;PMS7003;36547;50.514;30.840;2023-04-25T03:15:07;19.00;18.00;13.70
50589;PMS7003;36547;50.514;30.840;2023-04-25T03:16:11;17.70;17.10;12.70
50589;PMS7003;36547;50.514;30.840;2023-04-25T03:17:13;17.90;17.40;14.10
50589;PMS7003;36547;50.514;30.840;2023-04-25T03:18:16;17.10;16.60;13.70
50589;PMS7003;36547;50.514;30.840;2023-04-25T03:19:19;16.91;16.91;11.73
50589;PMS7003;36547;50.514;30.840;2023-04-25T03:20:22;5.90;5.90;1.90
50589;PMS7003;36547;50.514;30.840;2023-04-25T03:21:26;15.80;15.80;12.00
50589;PMS7003;36547;50.514;30.840;2023-04-25T03:22:28;15.20;13.60;10.60
50589;PMS7003;36547;50.514;30.840;2023-04-25T03:23:31;18.70;15.00;11.60
50589;PMS7003;36547;50.514;30.840;2023-04-25T03:24:33;17.50;15.90;12.90
50589;PMS7003;36547;50.514;30.840;2023-04-25T03:25:35;17.20;15.80;11.00
50589;PMS7003;36547;50.514;30.840;2023-04-25T03:26:39;15.30;14.40;9.90
50589;PMS7003;36547;50.514;30.840;2023-04-25T03:27:41;14.90;13.70;10.10
50589;PMS7003;36547;50.514;30.840;2023-04-25T03:28:44;18.00;15.50;11.00
50589;PMS7003;36547;50.514;30.840;2023-04-25T03:29:47;17.20;16.60;12.70
50589;PMS7003;36547;50.514;30.840;2023-04-25T03:30:49;15.60;15.60;10.50
50589;PMS7003;36547;50.514;30.840;2023-04-25T03:31:52;13.10;13.10;9.70
50589;PMS7003;36547;50.514;30.840;2023-04-25T03:32:54;14.30;13.80;10.40
50589;PMS7003;36547;50.514;30.840;2023-04-25T03:33:57;12.55;12.00;9.55
50589;PMS7003;36547;50.514;30.840;2023-04-25T03:35:00;8.90;8.90;5.40
50589;PMS7003;36547;50.514;30.840;2023-04-25T03:36:03;16.40;13.90;10.60
50589;PMS7003;36547;50.514;30.840;2023-04-25T03:37:06;15.91;14.09;10.91
50589;PMS7003;36547;50.514;30.840;2023-04-25T03:38:10;15.90;14.80;11.10
50589;PMS7003;36547;50.514;30.840;2023-04-25T03:39:14;15.40;15.40;11.50
50589;PMS7003;36547;50.514;30.840;2023-04-25T03:40:18;15.70;15.00;11.80
50589;PMS7003;36547;50.514;30.840;2023-04-25T03:41:28;16.60;15.10;11.50
50589;PMS7003;36547;50.514;30.840;2023-04-25T03:42:33;15.30;14.10;11.10
50589;PMS7003;36547;50.514;30.840;2023-04-25T03:43:35;16.60;14.10;11.10
50589;PMS7003;36547;50.514;30.840;2023-04-25T03:44:39;13.60;13.20;10.90
50589;PMS7003;36547;50.514;30.840;2023-04-25T03:45:42;16.90;15.50;12.40
50589;PMS7003;36547;50.514;30.840;2023-04-25T03:46:45;16.60;16.30;11.80
50589;PMS7003;36547;50.514;30.840;2023-04-25T03:47:47;13.60;13.60;10.40
50589;PMS7003;36547;50.514;30.840;2023-04-25T03:48:50;13.50;13.50;11.10
50589;PMS7003;36547;50.514;30.840;2023-04-25T03:49:54;14.90;14.20;10.00
50589;PMS7003;36547;50.514;30.840;2023-04-25T03:50:58;12.50;12.50;10.20
50589;PMS7003;36547;50.514;30.840;2023-04-25T03:52:00;16.90;15.20;10.90
50589;PMS7003;36547;50.514;30.840;2023-04-25T03:53:05;15.30;13.60;10.60
50589;PMS7003;36547;50.514;30.840;2023-04-25T03:54:09;13.90;13.90;11.40
50589;PMS7003;36547;50.514;30.840;2023-04-25T03:55:15;15.10;13.10;9.70
50589;PMS7003;36547;50.514;30.840;2023-04-25T03:56:17;17.80;14.00;10.70
50589;PMS7003;36547;50.514;30.840;2023-04-25T03:57:21;12.70;12.50;10.30
50589;PMS7003;36547;50.514;30.840;2023-04-25T03:58:23;12.80;11.90;10.10
50589;PMS7003;36547;50.514;30.840;2023-04-25T03:59:27;13.90;13.70;11.30
50589;PMS7003;36547;50.514;30.840;2023-04-25T04:00:29;15.80;14.50;10.90
50589;PMS7003;36547;50.514;30.840;2023-04-25T04:01:31;14.30;13.30;11.00
50589;PMS7003;36547;50.514;30.840;2023-04-25T04:02:34;13.90;13.10;10.50
50589;PMS7003;36547;50.514;30.840;2023-04-25T04:03:37;14.60;14.60;10.70
50589;PMS7003;36547;50.514;30.840;2023-04-25T04:04:40;15.00;14.27;10.73
50589;PMS7003;36547;50.514;30.840;2023-04-25T04:05:43;15.10;14.20;11.90
50589;PMS7003;36547;50.514;30.840;2023-04-25T04:06:47;16.36;14.82;11.55
50589;PMS7003;36547;50.514;30.840;2023-04-25T04:07:51;15.50;14.50;10.90
50589;PMS7003;36547;50.514;30.840;2023-04-25T04:08:54;15.10;15.10;12.30
50589;PMS7003;36547;50.514;30.840;2023-04-25T04:09:58;18.20;15.60;12.40
50589;PMS7003;36547;50.514;30.840;2023-04-25T04:11:03;16.40;14.40;11.00
50589;PMS7003;36547;50.514;30.840;2023-04-25T04:12:05;17.60;16.40;12.90
50589;PMS7003;36547;50.514;30.840;2023-04-25T04:13:08;15.10;13.60;11.80
50589;PMS7003;36547;50.514;30.840;2023-04-25T04:14:11;18.00;15.90;12.60
50589;PMS7003;36547;50.514;30.840;2023-04-25T04:15:15;15.00;14.30;9.90
50589;PMS7003;36547;50.514;30.840;2023-04-25T04:16:19;16.30;16.10;11.90
50589;PMS7003;36547;50.514;30.840;2023-04-25T04:17:22;16.18;14.00;11.00
50589;PMS7003;36547;50.514;30.840;2023-04-25T04:18:26;13.30;13.30;10.90
50589;PMS7003;36547;50.514;30.840;2023-04-25T04:19:30;14.30;13.30;8.90
50589;PMS7003;36547;50.514;30.840;2023-04-25T04:20:34;17.10;15.00;12.10
50589;PMS7003;36547;50.514;30.840;2023-04-25T04:21:37;14.27;14.27;11.82
50589;PMS7003;36547;50.514;30.840;2023-04-25T04:22:40;15.36;15.36;12.27
50589;PMS7003;36547;50.514;30.840;2023-04-25T04:23:44;15.90;14.50;9.80
50589;PMS7003;36547;50.514;30.840;2023-04-25T04:24:47;14.90;13.20;10.50
50589;PMS7003;36547;50.514;30.840;2023-04-25T04:25:51;20.30;15.90;11.60
50589;PMS7003;36547;50.514;30.840;2023-04-25T04:27:04;13.60;13.60;11.50
50589;PMS7003;36547;50.514;30.840;2023-04-25T04:28:09;17.00;16.90;12.20
50589;PMS7003;36547;50.514;30.840;2023-04-25T04:29:19;15.10;15.10;12.50
50589;PMS7003;36547;50.514;30.840;2023-04-25T04:30:36;15.80;15.80;12.10
50589;PMS7003;36547;50.514;30.840;2023-04-25T04:31:40;20.30;18.00;13.00
50589;PMS7003;36547;50.514;30.840;2023-04-25T04:32:43;15.50;15.50;10.70
50589;PMS7003;36547;50.514;30.840;2023-04-25T04:33:45;17.20;16.40;12.30
50589;PMS7003;36547;50.514;30.840;2023-04-25T04:34:49;19.80;14.90;10.30
50589;PMS7003;36547;50.514;30.840;2023-04-25T04:35:53;14.70;14.70;11.60
50589;PMS7003;36547;50.514;30.840;2023-04-25T04:36:56;15.10;14.10;11.30
50589;PMS7003;36547;50.514;30.840;2023-04-25T04:38:00;16.40;14.10;11.40
50589;PMS7003;36547;50.514;30.840;2023-04-25T04:39:05;14.90;13.90;10.40
50589;PMS7003;36547;50.514;30.840;2023-04-25T04:40:10;15.80;14.20;11.10
50589;PMS7003;36547;50.514;30.840;2023-04-25T04:41:18;15.50;14.30;11.80
50589;PMS7003;36547;50.514;30.840;2023-04-25T04:42:22;15.30;15.30;12.60
50589;PMS7003;36547;50.514;30.840;2023-04-25T04:43:45;15.00;14.10;10.60
50589;PMS7003;36547;50.514;30.840;2023-04-25T04:44:54;16.70;15.80;11.40
50589;PMS7003;36547;50.514;30.840;2023-04-25T04:46:04;16.70;15.20;12.30
50589;PMS7003;36547;50.514;30.840;2023-04-25T04:47:26;14.60;14.30;11.30
50589;PMS7003;36547;50.514;30.840;2023-04-25T04:48:33;15.10;14.10;11.40
50589;PMS7003;36547;50.514;30.840;2023-04-25T04:49:40;13.00;13.00;10.80
50589;PMS7003;36547;50.514;30.840;2023-04-25T04:50:43;13.10;13.10;10.40
50589;PMS7003;36547;50.514;30.840;2023-04-25T04:52:00;15.20;13.40;10.60
50589;PMS7003;36547;50.514;30.840;2023-04-25T04:53:10;17.60;16.90;13.20
50589;PMS7003;36547;50.514;30.840;2023-04-25T04:54:12;14.90;14.10;10.90
50589;PMS7003;36547;50.514;30.840;2023-04-25T04:55:15;15.10;14.00;11.40
50589;PMS7003;36547;50.514;30.840;2023-04-25T04:56:20;14.90;13.70;12.30
50589;PMS7003;36547;50.514;30.840;2023-04-25T04:57:24;15.00;14.20;11.50
50589;PMS7003;36547;50.514;30.840;2023-04-25T04:58:37;16.90;15.80;12.60
50589;PMS7003;36547;50.514;30.840;2023-04-25T04:59:57;14.00;14.00;10.70
50589;PMS7003;36547;50.514;30.840;2023-04-25T05:01:06;17.60;15.80;12.60
50589;PMS7003;36547;50.514;30.840;2023-04-25T05:02:10;16.70;15.10;11.60
50589;PMS7003;36547;50.514;30.840;2023-04-25T05:03:21;14.10;14.10;11.60
50589;PMS7003;36547;50.514;30.840;2023-04-25T05:04:30;18.90;16.60;13.20
50589;PMS7003;36547;50.514;30.840;2023-04-25T05:05:37;13.30;13.30;11.20
50589;PMS7003;36547;50.514;30.840;2023-04-25T05:06:42;16.30;14.70;11.40
50589;PMS7003;36547;50.514;30.840;2023-04-25T05:07:56;13.70;13.40;10.10
50589;PMS7003;36547;50.514;30.840;2023-04-25T05:09:09;16.40;15.00;11.40
50589;PMS7003;36547;50.514;30.840;2023-04-25T05:10:25;13.90;12.90;10.30
50589;PMS7003;36547;50.514;30.840;2023-04-25T05:11:39;13.80;13.80;11.00
50589;PMS7003;36547;50.514;30.840;2023-04-25T05:13:01;13.00;12.40;9.50
50589;PMS7003;36547;50.514;30.840;2023-04-25T05:14:05;15.10;13.70;10.70
50589;PMS7003;36547;50.514;30.840;2023-04-25T05:15:12;13.10;13.10;11.70
50589;PMS7003;36547;50.514;30.840;2023-04-25T05:16:18;15.20;14.40;11.30
50589;PMS7003;36547;50.514;30.840;2023-04-25T05:17:29;13.70;13.70;10.00
50589;PMS7003;36547;50.514;30.840;2023-04-25T05:18:38;14.80;14.60;11.30
50589;PMS7003;36547;50.514;30.840;2023-04-25T05:19:46;14.40;13.10;10.50
50589;PMS7003;36547;50.514;30.840;2023-04-25T05:20:53;13.00;13.00;10.50
50589;PMS7003;36547;50.514;30.840;2023-04-25T05:21:57;15.70;14.50;11.80
50589;PMS7003;36547;50.514;30.840;2023-04-25T05:23:01;16.70;15.80;11.70
50589;PMS7003;36547;50.514;30.840;2023-04-25T05:24:11;16.20;15.20;11.70
50589;PMS7003;36547;50.514;30.840;2023-04-25T05:25:32;13.70;13.20;10.50
50589;PMS7003;36547;50.514;30.840;2023-04-25T05:26:37;16.80;15.50;11.50
50589;PMS7003;36547;50.514;30.840;2023-04-25T05:27:41;16.70;16.70;13.50
50589;PMS7003;36547;50.514;30.840;2023-04-25T05:28:52;21.40;20.40;15.00
50589;PMS7003;36547;50.514;30.840;2023-04-25T05:29:56;60.50;50.60;34.40
50589;PMS7003;36547;50.514;30.840;2023-04-25T05:31:00;75.90;66.60;47.00
50589;PMS7003;36547;50.514;30.840;2023-04-25T05:32:05;44.20;37.20;26.60
50589;PMS7003;36547;50.514;30.840;2023-04-25T05:33:07;27.90;25.80;19.80
50589;PMS7003;36547;50.514;30.840;2023-04-25T05:34:10;25.00;24.00;18.50
50589;PMS7003;36547;50.514;30.840;2023-04-25T05:35:26;20.00;19.40;14.80
50589;PMS7003;36547;50.514;30.840;2023-04-25T05:36:29;22.00;21.73;17.36
50589;PMS7003;36547;50.514;30.840;2023-04-25T05:37:31;18.90;17.50;14.00
50589;PMS7003;36547;50.514;30.840;2023-04-25T05:38:36;72.60;66.40;46.40
50589;PMS7003;36547;50.514;30.840;2023-04-25T05:39:56;126.90;117.60;76.20
50589;PMS7003;36547;50.514;30.840;2023-04-25T05:41:03;71.60;57.10;39.50
50589;PMS7003;36547;50.514;30.840;2023-04-25T05:42:10;45.70;37.20;25.70
50589;PMS7003;36547;50.514;30.840;2023-04-25T05:43:21;32.00;30.10;21.20
50589;PMS7003;36547;50.514;30.840;2023-04-25T05:44:25;29.30;27.80;19.90
50589;PMS7003;36547;50.514;30.840;2023-04-25T05:45:35;26.50;22.80;17.60
50589;PMS7003;36547;50.514;30.840;2023-04-25T05:46:46;26.10;25.20;19.50
50589;PMS7003;36547;50.514;30.840;2023-04-25T05:47:50;51.20;42.30;30.00
50589;PMS7003;36547;50.514;30.840;2023-04-25T05:48:54;51.40;43.10;31.00
50589;PMS7003;36547;50.514;30.840;2023-04-25T05:50:14;36.90;33.30;24.10
50589;PMS7003;36547;50.514;30.840;2023-04-25T05:51:25;43.20;35.80;24.10
50589;PMS7003;36547;50.514;30.840;2023-04-25T05:52:42;27.30;25.60;17.70
50589;PMS7003;36547;50.514;30.840;2023-04-25T05:53:46;15.30;15.00;12.10
50589;PMS7003;36547;50.514;30.840;2023-04-25T05:54:50;17.80;16.90;13.40
50589;PMS7003;36547;50.514;30.840;2023-04-25T05:55:52;17.60;17.60;13.80
50589;PMS7003;36547;50.514;30.840;2023-04-25T05:56:56;21.50;19.00;14.50
50589;PMS7003;36547;50.514;30.840;2023-04-25T05:58:00;20.70;20.70;16.00